Amargosa Valley, Nevada Weather observations

Data are for observation ending at time listed.
 Day   Time    Ave.   Ave.  Ave.  Vector   Max.   Stn.    Total    Solar   Ave.  
  of    of     Air    Rel.  Wind   Wind    Wind   Baro.  Precip.   Rad.    Soil  
Year   Day     Temp.  Hum.  Speed  Dir.    Gust   Pres.                    Temp. 
2016   (PST)    F      %     mph   deg.    mph     mb.     in.     W/m2     F   
------------------------------------------------------------------------------
 269   21:10   73.4    13    1.3    23      3.1   934.6    0.00       0    84.7
 269   21:20   72.6    13    0.2    14      1.8   934.7    0.00       0    84.7
 269   21:30   71.7    13    1.1    25      3.9   934.8    0.00       0    84.5
 269   21:40   70.4    13    1.7    32      5.2   934.9    0.00       0    84.5
 269   21:50   69.6    13    0.3    22      3.9   934.9    0.00       0    84.4
 269   22:00   69.0    14    0.1    15      1.3   934.8    0.00       0    84.3
 269   22:10   70.1    14    0.3    30      1.9   934.9    0.00       0    84.2
 269   22:20   69.3    14    0.0    11      0.4   934.9    0.00       0    84.1
 269   22:30   68.3    15    0.0    10      0.1   934.9    0.00       0    84.0
 269   22:40   67.2    16    0.0     0      0.0   935.0    0.00       0    83.9
 269   22:50   66.8    16    0.0     0      0.0   935.0    0.00       0    83.8
 269   23:00   66.8    16    0.1    11      0.8   935.0    0.00       0    83.7
 269   23:10   67.1    16    0.3    24      2.6   935.0    0.00       0    83.6
 269   23:20   69.8    15    1.3    38      3.4   935.0    0.00       0    83.5
 269   23:30   69.3    16    0.5    31      2.3   935.0    0.00       0    83.4
 269   23:40   68.2    16    0.7    94      2.9   935.1    0.00       0    83.3
 269   23:50   68.3    17    2.7    86      5.3   935.2    0.00       0    83.2
 270    0:00   69.0    16    2.2    58      5.5   935.1    0.00       0    83.1
 270    0:10   68.9    17    2.1    69      3.7   935.0    0.00       0    83.0
 270    0:20   69.2    17    1.4    44      4.2   935.0    0.00       0    82.9
 270    0:30   68.8    18    0.2    31      2.0   935.0    0.00       0    82.8
 270    0:40   69.5    17    0.1    22      1.7   934.9    0.00       0    82.7
 270    0:50   69.5    18    0.6   334      2.0   934.7    0.00       0    82.6
 270    1:00   69.3    18    0.4   344      2.3   934.8    0.00       0    82.5
 270    1:10   71.9    16    1.3     3      3.9   934.8    0.00       0    82.4
 270    1:20   73.0    16    1.3     3      3.5   934.7    0.00       0    82.3
 270    1:30   71.5    16    0.6     7      2.9   934.8    0.00       0    82.1
 270    1:40   70.4    17    0.2   348      0.9   934.9    0.00       0    82.0
 270    1:50   70.2    17    1.0    10      5.0   934.9    0.00       0    82.0
 270    2:00   72.5    16    2.2    18      6.2   934.8    0.00       0    81.9
 270    2:10   72.3    16    1.0   360      4.1   934.8    0.00       0    81.8
 270    2:20   71.9    16    0.4   354      3.7   934.9    0.00       0    81.7
 270    2:30   72.1    16    0.4     2      2.3   934.9    0.00       0    81.6
 270    2:40   71.9    16    0.7   359      2.5   934.7    0.00       0    81.6
 270    2:50   71.7    17    0.8    17      3.4   934.7    0.00       0    81.5
 270    3:00   71.6    17    1.0    13      5.0   934.8    0.00       0    81.4
 270    3:10   72.1    17    0.8     7      3.3   934.8    0.00       0    81.3
 270    3:20   72.0    17    1.2    19      5.5   934.9    0.00       0    81.2
 270    3:30   71.2    17    0.6   341      3.4   934.9    0.00       0    81.2
 270    3:40   69.6    18    0.6   324      1.6   935.0    0.00       0    81.1
 270    3:50   68.5    19    0.5     8      2.9   935.1    0.00       0    81.0
 270    4:00   67.9    20    0.5    26      2.5   935.1    0.00       0    81.0
 270    4:10   68.8    19    0.9    24      3.3   935.1    0.00       0    80.9
 270    4:20   69.7    19    0.7    30      5.1   935.1    0.00       0    80.8
 270    4:30   69.4    19    0.3    18      2.3   935.2    0.00       0    80.7
 270    4:40   69.1    19    0.2   345      1.5   935.2    0.00       0    80.7
 270    4:50   67.4    20    2.9   313      8.8   935.2    0.00       0    80.6
 270    5:00   67.7    20    2.8   308      6.4   935.3    0.00       0    80.5
 270    5:10   68.0    20    2.9   311      6.8   935.4    0.00       0    80.5
 270    5:20   68.2    20    3.5   310      8.0   935.5    0.00       0    80.4
 270    5:30   68.6    20    4.1   312     12.6   935.6    0.00       0    80.3
 270    5:40   68.7    20    3.7   319      8.1   935.6    0.00       3    80.3
 270    5:50   69.0    20    2.2   324      6.1   935.7    0.00      13    80.2
 270    6:00   70.4    20    1.9    20      7.3   935.8    0.00      35    80.1
 270    6:10   71.8    18    2.3   329      7.2   936.0    0.00      61    80.0
 270    6:20   68.8    20    1.4   274      3.9   936.2    0.00      95    79.9
 270    6:30   69.8    19    3.2   303      6.2   936.3    0.00     133    79.8
 270    6:40   71.3    19    2.5   310      4.7   936.4    0.00     162    79.8
 270    6:50   72.7    19    1.7   313      3.7   936.5    0.00     191    79.7
 270    7:00   72.6    18    2.0   303      6.7   936.6    0.00     220    79.6
 270    7:10   72.1    18    4.5   305      6.6   936.7    0.00     249    79.5
 270    7:20   73.8    18    3.4   307      5.6   936.8    0.00     280    79.4
 270    7:30   74.6    17    3.0   307      6.1   936.8    0.00     310    79.4
 270    7:40   75.8    17    1.1   307      3.4   936.9    0.00     327    79.3
 270    7:50   78.0    16    1.1     2      5.9   936.9    0.00     362    79.2
 270    8:00   78.9    15    1.5    24      4.5   937.1    0.00     396    79.2
 270    8:10   79.9    15    1.7    28      6.6   937.2    0.00     405    79.1
 270    8:20   80.3    15    5.1    71     16.1   937.3    0.00     422    79.1
 270    8:30   80.8    15    5.8    72     12.2   937.3    0.00     432    79.1
 270    8:40   80.8    14    7.6    84     18.0   937.3    0.00     444    79.0
 270    8:50   81.4    14    8.6    82     16.6   937.2    0.00     465    79.0
 270    9:00   82.1    14    5.2    71     12.1   937.1    0.00     495    79.0
 270    9:10   81.8    14    5.3    79     11.8   937.2    0.00     512    79.0
 270    9:20   82.4    14    4.3    74      8.6   937.1    0.00     406    78.9
 270    9:30   83.0    13    5.9    92     10.5   937.0    0.00      73    79.0
 270    9:40   82.1    14    5.7    98     11.6   937.0    0.00     544    79.0
 270    9:50   82.9    13    4.3    89     11.0   936.9    0.00     305    79.1
 270   10:00   83.4    13    2.9    67      7.5   936.8    0.00     631    79.1
 270   10:10   83.5    13    2.7    75      7.6   936.7    0.00     663    79.1
 270   10:20   83.8    13    3.8    96      8.3   936.6    0.00     717    79.2
 270   10:30   83.9    13    3.4    99      8.8   936.4    0.00     708    79.3
 270   10:40   85.5    12    2.5    67      7.7   936.4    0.00     695    79.4
 270   10:50   85.4    12    4.2    78     11.7   936.3    0.00     708    79.5
 270   11:00   86.4    12    2.4    57      9.1   936.1    0.00     738    79.6
 270   11:10   85.9    12    3.7    82     10.4   936.1    0.00     796    79.7
 270   11:20   86.6    12    1.8    88      9.6   935.9    0.00     821    79.9
 270   11:30   86.8    12    3.3    77      9.4   935.8    0.00     826    80.0
 270   11:40   87.6    12    2.4    70     11.0   935.6    0.00     826    80.1
 270   11:50   88.5    11    1.2    11      4.0   935.5    0.00     825    80.3
 270   12:00   88.9    11    3.7    87     12.4   935.3    0.00     823    80.4
 270   12:10   87.8    11    3.6    82     11.0   935.1    0.00     820    80.6
 270   12:20   88.8    11    2.1    32      5.9   934.9    0.00     814    80.9
 270   12:30   89.7    11    3.5    82      8.3   934.8    0.00     807    81.1
 270   12:40   89.2    11    3.4    71      9.4   934.5    0.00     799    81.3
 270   12:50   90.0    10    2.4    28      8.0   934.4    0.00     790    81.6
 270   13:00   90.3    10    4.9   109      9.9   934.2    0.00     776    81.9
 270   13:10   89.8    10    5.1   128      9.1   934.0    0.00     761    82.2
 270   13:20   90.2    11    4.2   178      8.9   933.8    0.00     741    82.5
 270   13:30   90.3    10    3.5   183      8.6   933.7    0.00     724    82.8
 270   13:40   91.0    10    2.4   191     12.1   933.5    0.00     705    83.1
 270   13:50   91.6    10    2.9   117      9.3   933.5    0.00     684    83.4
 270   14:00   92.2    10    2.4    89      5.3   933.3    0.00     662    83.7
 270   14:10   91.3    10    4.4   110      9.0   933.3    0.00     639    84.1
 270   14:20   91.0    10    5.5    87      9.4   933.1    0.00     615    84.4
 270   14:30   91.2    10    2.7    60      6.9   933.0    0.00     589    84.7
 270   14:40   91.3    10    3.4   101      8.6   932.9    0.00     563    85.0
 270   14:50   91.0    10    2.6    11      5.8   932.7    0.00     536    85.3
 270   15:00   91.3    10    4.0   144      9.6   932.6    0.00     506    85.6
 270   15:10   90.5    10    4.8   148      9.3   932.4    0.00     474    85.9
 270   15:20   90.8    10    5.5   117     11.5   932.3    0.00     442    86.2
 270   15:30   90.4    10    3.3    83      6.9   932.1    0.00     405    86.5
 270   15:40   90.6    10    1.4   126      4.5   931.9    0.00     105    86.7
 270   15:50   90.5    10    2.3   158      5.3   931.7    0.00      36    86.9
 270   16:00   90.5    10    2.8   204      6.6   931.5    0.00      31    87.1
 270   16:10   90.2    10    2.3   163      6.4   931.4    0.00      43    87.2
 270   16:20   90.5    10    4.6    99      8.5   931.3    0.00      30    87.3
 270   16:30   90.4    10    3.7   128      8.0   931.3    0.00      32    87.5
 270   16:40   90.1    10    1.8   202      5.1   931.2    0.00      30    87.5
 270   16:50   89.8    10    2.7   214      4.7   931.2    0.00      22    87.6
 270   17:00   89.5    10    3.7   186      7.1   931.1    0.00      21    87.7
 270   17:10   89.1    10    3.5   171      5.0   931.1    0.00      18    87.7
 270   17:20   88.6    10    2.5   214      5.7   931.1    0.00      14    87.8
 270   17:30   88.2    10    1.6   196      3.9   931.1    0.00       9    87.8
 270   17:40   87.5    11    2.0   203      4.2   931.1    0.00       4    87.9
 270   17:50   86.2    11    1.4   206      2.6   931.0    0.00       2    87.9
 270   18:00   85.7    11    0.5   215      1.6   931.0    0.00       0    87.9
 270   18:10   84.2    12    0.0     0      0.0   930.9    0.00       0    87.9
 270   18:20   83.6    12    0.6   222      2.9   930.8    0.00       0    87.9
 270   18:30   83.4    12    0.0     0      0.0   930.9    0.00       0    87.9
 270   18:40   82.9    12    0.0     0      0.0   930.9    0.00       0    87.9
 270   18:50   81.9    12    0.0     0      0.0   931.0    0.00       0    87.8
 270   19:00   79.3    12    0.1   330      2.9   931.1    0.00       0    87.8
 270   19:10   78.4    13    0.9    51      2.5   931.1    0.00       0    87.7
 270   19:20   79.5    13    0.2    49      1.8   931.2    0.00       0    87.7
 270   19:30   79.0    13    0.6    48      1.7   931.3    0.00       0    87.6
 270   19:40   78.2    12    0.1    46      1.3   931.4    0.00       0    87.6
 270   19:50   76.0    13    0.2    45      1.6   931.5    0.00       0    87.5
 270   20:00   76.7    13    0.0     0      0.0   931.4    0.00       0    87.4
 270   20:10   74.6    13    0.4    30      3.8   931.4    0.00       0    87.3
 270   20:20   73.8    14    0.1    28      1.9   931.3    0.00       0    87.2
 270   20:30   75.3    13    1.7    38      5.8   931.3    0.00       0    87.1
 270   20:40   74.2    14    1.1    30      3.7   931.3    0.00       0    87.0
 270   20:50   74.0    14    1.1    39      4.0   931.3    0.00       0    86.9
 270   21:00   73.2    15    2.8    53      7.6   931.3    0.00       0    86.8

Return to Amargosa Valley, Nevada graphs page.


Western Regional Climate Center,wrcc@dri.edu